createdAt,value
2023-02-28T00:00:39.105Z,84.13
2023-02-28T00:03:06.208Z,84.58
2023-02-28T00:05:33.213Z,84.07
2023-02-28T00:07:59.922Z,84.03
2023-02-28T00:10:29.740Z,84.57
2023-02-28T00:13:00.890Z,84.34
2023-02-28T00:15:27.646Z,84.12
2023-02-28T00:17:54.577Z,84.08
2023-02-28T00:20:21.847Z,83.89
2023-02-28T00:22:51.330Z,83.88
2023-02-28T00:25:20.908Z,83.82
2023-02-28T00:27:47.729Z,83.37
2023-02-28T00:30:17.967Z,83.29
2023-02-28T00:32:45.269Z,83.12
2023-02-28T00:35:12.879Z,82.99
2023-02-28T00:37:39.644Z,82.85
2023-02-28T00:40:07.532Z,82.91
2023-02-28T00:42:35.933Z,83.24
2023-02-28T00:45:04.847Z,82.96
2023-02-28T00:47:32.369Z,83.04
2023-02-28T00:49:59.268Z,82.77
2023-02-28T00:52:26.278Z,82.51
2023-02-28T00:54:52.948Z,82.58
2023-02-28T00:57:19.671Z,82.71
2023-02-28T00:59:46.412Z,82.96
2023-02-28T01:02:13.136Z,82.10
2023-02-28T01:04:39.894Z,82.54
2023-02-28T01:07:06.613Z,82.31
2023-02-28T01:09:33.300Z,82.48
2023-02-28T01:12:00.198Z,82.47
2023-02-28T01:14:27.012Z,82.23
2023-02-28T01:16:53.670Z,82.03
2023-02-28T01:19:20.491Z,82.16
2023-02-28T01:21:47.145Z,82.54
2023-02-28T01:24:14.840Z,82.63
2023-02-28T01:26:41.558Z,82.62
2023-02-28T01:29:08.348Z,82.45
2023-02-28T01:31:35.110Z,82.75
2023-02-28T01:34:02.526Z,83.12
2023-02-28T01:36:30.753Z,82.30
2023-02-28T01:38:57.832Z,82.55
2023-02-28T01:41:32.654Z,82.47
2023-02-28T01:44:04.385Z,82.42
2023-02-28T01:46:32.815Z,82.79
2023-02-28T01:48:59.575Z,82.56
2023-02-28T01:51:30.510Z,82.96
2023-02-28T01:54:03.094Z,82.58
2023-02-28T01:56:33.853Z,82.17
2023-02-28T01:59:00.739Z,81.71
2023-02-28T02:01:29.134Z,81.68
2023-02-28T02:03:59.985Z,81.39
2023-02-28T02:06:31.469Z,81.53
2023-02-28T02:08:58.147Z,81.64
2023-02-28T02:11:26.932Z,82.05
2023-02-28T02:14:18.488Z,82.02
2023-02-28T02:17:06.562Z,81.88
2023-02-28T02:19:51.709Z,82.31
2023-02-28T02:22:36.948Z,82.03
2023-02-28T02:25:18.456Z,81.76
2023-02-28T02:27:58.303Z,81.85
2023-02-28T02:30:45.464Z,82.11
2023-02-28T02:33:27.034Z,82.08
2023-02-28T02:36:18.115Z,82.52
2023-02-28T02:39:03.653Z,82.53
2023-02-28T02:41:49.424Z,82.42
2023-02-28T02:44:25.146Z,82.32
2023-02-28T02:46:59.352Z,82.15
2023-02-28T02:49:32.314Z,82.11
2023-02-28T02:52:04.405Z,82.01
2023-02-28T02:54:38.456Z,81.64
2023-02-28T02:57:10.624Z,81.53
2023-02-28T02:59:40.880Z,82.22
2023-02-28T03:02:12.281Z,82.42
2023-02-28T03:04:52.490Z,82.16
2023-02-28T03:07:19.156Z,82.28
2023-02-28T03:09:57.101Z,81.80
2023-02-28T03:12:32.610Z,81.77
2023-02-28T03:15:11.572Z,82.25
2023-02-28T03:18:00.897Z,81.98
2023-02-28T03:20:42.260Z,82.08
2023-02-28T03:23:14.349Z,82.00
2023-02-28T03:26:12.497Z,81.91
2023-02-28T03:28:50.449Z,81.74
2023-02-28T03:31:49.539Z,81.71
2023-02-28T03:34:38.669Z,81.82
2023-02-28T03:37:18.173Z,81.78
2023-02-28T03:39:59.216Z,82.08
2023-02-28T03:42:30.688Z,82.10
2023-02-28T03:45:01.731Z,81.92
2023-02-28T03:47:44.396Z,82.54
2023-02-28T03:50:17.922Z,82.44
2023-02-28T03:52:51.927Z,82.57
2023-02-28T03:55:20.203Z,82.39
2023-02-28T03:58:11.201Z,82.36
2023-02-28T04:01:09.302Z,82.24
2023-02-28T04:03:40.399Z,82.47
2023-02-28T04:06:13.770Z,81.39
2023-02-28T04:08:40.865Z,80.23
2023-02-28T04:11:38.006Z,77.68
2023-02-28T04:14:05.972Z,77.05
2023-02-28T04:16:35.858Z,74.97
2023-02-28T04:19:07.181Z,73.66
2023-02-28T04:21:40.129Z,72.11
2023-02-28T04:24:08.313Z,71.45
2023-02-28T04:26:37.453Z,72.49
2023-02-28T04:29:06.312Z,70.41
2023-02-28T04:31:33.437Z,70.25
2023-02-28T04:34:00.974Z,70.66
2023-02-28T04:36:28.416Z,70.01
2023-02-28T04:38:55.731Z,68.88
2023-02-28T04:41:23.812Z,70.51
2023-02-28T04:43:52.741Z,68.54
2023-02-28T04:46:19.923Z,67.72
2023-02-28T04:48:46.758Z,67.94
2023-02-28T04:51:16.100Z,67.85
2023-02-28T04:53:43.396Z,69.21
2023-02-28T04:56:13.625Z,68.60
2023-02-28T04:58:40.773Z,69.35
2023-02-28T05:01:17.774Z,69.14
2023-02-28T05:03:44.768Z,66.70
2023-02-28T05:06:13.208Z,67.77
2023-02-28T05:08:39.941Z,68.33
2023-02-28T05:11:13.364Z,69.22
2023-02-28T05:13:39.996Z,68.64
2023-02-28T05:16:07.059Z,69.81
2023-02-28T05:18:33.759Z,68.77
2023-02-28T05:21:03.316Z,68.60
2023-02-28T05:23:30.599Z,69.31
2023-02-28T05:25:57.702Z,70.04
2023-02-28T05:28:24.797Z,67.61
2023-02-28T05:30:51.452Z,66.54
2023-02-28T05:33:18.139Z,67.46
2023-02-28T05:35:44.869Z,68.08
2023-02-28T05:38:11.883Z,68.79
2023-02-28T05:40:40.693Z,68.32
2023-02-28T05:43:09.966Z,68.22
2023-02-28T05:45:36.656Z,68.03
2023-02-28T05:48:03.365Z,68.93
2023-02-28T05:50:30.021Z,70.05
2023-02-28T05:52:56.709Z,70.47
2023-02-28T05:55:23.360Z,71.28
2023-02-28T05:57:50.027Z,71.08
2023-02-28T06:00:18.857Z,71.49
2023-02-28T06:02:45.639Z,71.85
2023-02-28T06:05:17.704Z,72.05
2023-02-28T06:07:45.306Z,71.94
2023-02-28T06:10:12.671Z,71.22
2023-02-28T06:12:39.772Z,70.87
2023-02-28T06:15:06.851Z,71.01
2023-02-28T06:17:33.537Z,70.55
2023-02-28T06:20:00.403Z,71.35
2023-02-28T06:22:27.190Z,70.99
2023-02-28T06:24:53.996Z,71.36
2023-02-28T06:27:21.365Z,71.65
2023-02-28T06:29:48.212Z,72.06
2023-02-28T06:32:14.962Z,71.86
2023-02-28T06:34:41.687Z,72.75
2023-02-28T06:37:08.436Z,72.32
2023-02-28T06:39:35.556Z,72.22
2023-02-28T06:42:02.315Z,72.48
2023-02-28T06:44:36.478Z,70.67
2023-02-28T06:47:05.009Z,70.23
2023-02-28T06:49:33.600Z,70.91
2023-02-28T06:52:00.389Z,70.74
2023-02-28T06:54:27.196Z,69.76
2023-02-28T06:56:55.331Z,69.04
2023-02-28T06:59:22.275Z,68.30
2023-02-28T07:01:48.966Z,67.62
2023-02-28T07:04:15.860Z,68.50
2023-02-28T07:06:42.597Z,67.88
2023-02-28T07:09:09.239Z,67.23
2023-02-28T07:11:36.133Z,67.27
2023-02-28T07:14:02.919Z,68.29
2023-02-28T07:16:29.574Z,67.77
2023-02-28T07:18:56.487Z,66.79
2023-02-28T07:21:23.526Z,64.93
2023-02-28T07:23:51.001Z,64.85
2023-02-28T07:26:19.499Z,64.65
2023-02-28T07:28:48.491Z,65.28
2023-02-28T07:31:16.787Z,64.84
2023-02-28T07:33:44.038Z,65.37
2023-02-28T07:36:16.125Z,66.11
2023-02-28T07:38:49.179Z,65.74
2023-02-28T07:41:17.859Z,65.99
2023-02-28T07:43:45.698Z,66.54
2023-02-28T07:46:16.184Z,66.20
2023-02-28T07:48:43.503Z,66.41
2023-02-28T07:51:10.239Z,66.71
2023-02-28T07:53:36.895Z,65.77
2023-02-28T07:56:04.098Z,64.94
2023-02-28T07:58:32.019Z,65.60
2023-02-28T08:00:58.998Z,65.61
2023-02-28T08:03:26.107Z,65.05
2023-02-28T08:05:53.801Z,65.32
2023-02-28T08:08:20.649Z,65.57
2023-02-28T08:10:47.377Z,65.70
2023-02-28T08:13:14.024Z,65.23
2023-02-28T08:15:43.908Z,65.62
2023-02-28T08:18:10.958Z,65.03
2023-02-28T08:20:37.796Z,65.35
2023-02-28T08:23:04.497Z,65.72
2023-02-28T08:25:31.104Z,63.61
2023-02-28T08:27:57.737Z,63.79
2023-02-28T08:30:24.334Z,62.74
2023-02-28T08:32:51.004Z,61.79
2023-02-28T08:35:17.646Z,63.19
2023-02-28T08:37:44.358Z,63.29
2023-02-28T08:40:11.925Z,62.48
2023-02-28T08:42:38.584Z,61.07
2023-02-28T08:45:05.703Z,61.30
2023-02-28T08:47:32.593Z,60.22
2023-02-28T08:49:59.179Z,60.45
2023-02-28T08:52:25.926Z,60.06
2023-02-28T08:54:52.641Z,60.61
2023-02-28T08:57:19.360Z,59.63
2023-02-28T08:59:46.052Z,60.06
2023-02-28T09:02:15.382Z,58.93
2023-02-28T09:04:42.480Z,58.54
2023-02-28T09:07:09.260Z,58.71
2023-02-28T09:09:35.967Z,59.69
2023-02-28T09:12:03.205Z,57.87
2023-02-28T09:14:29.859Z,57.94
2023-02-28T09:16:56.466Z,56.68
2023-02-28T09:19:23.509Z,53.51
2023-02-28T09:21:50.205Z,53.36
2023-02-28T09:24:16.826Z,52.86
2023-02-28T09:26:56.548Z,52.54
2023-02-28T09:29:30.557Z,53.38
2023-02-28T09:31:59.662Z,53.37
2023-02-28T09:34:27.680Z,53.92
2023-02-28T09:36:56.062Z,54.73
2023-02-28T09:39:23.930Z,52.89
2023-02-28T09:41:53.402Z,52.04
2023-02-28T09:44:33.632Z,51.36
2023-02-28T09:47:26.488Z,52.14
2023-02-28T09:49:53.605Z,51.52
2023-02-28T09:52:25.579Z,50.54
2023-02-28T09:54:53.231Z,51.94
2023-02-28T09:57:25.533Z,51.46
2023-02-28T10:00:18.926Z,51.64
2023-02-28T10:03:02.456Z,51.59
2023-02-28T10:05:34.403Z,52.41
2023-02-28T10:08:11.393Z,51.06
2023-02-28T10:10:44.445Z,51.75
2023-02-28T10:13:17.617Z,52.85
2023-02-28T10:15:47.520Z,52.59
2023-02-28T10:18:21.039Z,52.85
2023-02-28T10:20:50.289Z,53.06
2023-02-28T10:23:46.076Z,53.21
2023-02-28T10:26:16.731Z,53.27
2023-02-28T10:28:44.355Z,52.29
2023-02-28T10:31:19.784Z,52.15
2023-02-28T10:33:46.903Z,52.57
2023-02-28T10:36:20.731Z,52.78
2023-02-28T10:38:48.341Z,50.33
2023-02-28T10:41:28.725Z,49.45
2023-02-28T10:44:15.010Z,49.23
2023-02-28T10:46:43.525Z,48.79
2023-02-28T10:49:26.961Z,49.92
2023-02-28T10:51:58.008Z,49.31
2023-02-28T10:54:30.707Z,49.06
2023-02-28T10:57:31.776Z,49.01
2023-02-28T11:00:15.835Z,49.87
2023-02-28T11:02:45.182Z,48.75
2023-02-28T11:05:31.797Z,49.47
2023-02-28T11:08:13.019Z,49.28
2023-02-28T11:10:40.115Z,49.37
2023-02-28T11:13:07.135Z,48.91
2023-02-28T11:15:36.138Z,49.04
2023-02-28T11:18:23.930Z,49.21
2023-02-28T11:20:53.347Z,49.66
2023-02-28T11:23:21.328Z,52.32
2023-02-28T11:25:52.155Z,49.42
2023-02-28T11:28:38.042Z,50.51
2023-02-28T11:31:20.501Z,49.66
2023-02-28T11:33:56.741Z,49.58
2023-02-28T11:36:34.235Z,48.97
2023-02-28T11:39:06.167Z,49.63
2023-02-28T11:42:27.689Z,50.18
2023-02-28T11:45:22.647Z,49.37
2023-02-28T11:48:10.743Z,49.71
2023-02-28T11:50:40.381Z,49.69
2023-02-28T11:53:20.273Z,49.35
2023-02-28T11:55:50.014Z,50.12
2023-02-28T11:58:40.858Z,50.58
2023-02-28T12:01:23.009Z,50.94
2023-02-28T12:04:05.517Z,50.90
2023-02-28T12:06:46.357Z,50.09
2023-02-28T12:09:43.456Z,51.14
2023-02-28T12:12:37.994Z,50.88
2023-02-28T12:15:34.027Z,51.47
2023-02-28T12:18:19.091Z,51.12
2023-02-28T12:21:04.485Z,50.29
2023-02-28T12:23:40.056Z,51.53
2023-02-28T12:26:32.419Z,49.70
2023-02-28T12:29:12.475Z,49.57
2023-02-28T12:31:48.857Z,49.42
2023-02-28T12:34:22.215Z,48.76
2023-02-28T12:36:52.882Z,49.08
2023-02-28T12:39:49.417Z,49.74
2023-02-28T12:42:26.023Z,48.19
2023-02-28T12:44:59.228Z,48.75
2023-02-28T12:47:26.047Z,48.82
2023-02-28T12:50:09.041Z,49.12
2023-02-28T12:52:55.940Z,49.08
2023-02-28T12:56:10.333Z,48.17
2023-02-28T12:58:39.231Z,47.94
2023-02-28T13:01:30.482Z,48.29
2023-02-28T13:04:07.729Z,48.02
2023-02-28T13:07:01.787Z,48.05
2023-02-28T13:09:30.547Z,46.96
2023-02-28T13:11:58.829Z,47.38
2023-02-28T13:14:38.327Z,47.47
2023-02-28T13:17:14.123Z,46.94
2023-02-28T13:19:58.991Z,47.17
2023-02-28T13:22:50.267Z,46.96
2023-02-28T13:25:22.939Z,47.28
2023-02-28T13:28:02.067Z,48.53
2023-02-28T13:30:57.104Z,48.74
2023-02-28T13:33:35.198Z,47.17
2023-02-28T13:36:20.322Z,46.94
2023-02-28T13:39:00.972Z,46.57
2023-02-28T13:41:31.119Z,46.31
2023-02-28T13:44:30.494Z,47.81
2023-02-28T13:46:57.038Z,46.77
2023-02-28T13:49:26.367Z,47.30
2023-02-28T13:52:08.042Z,47.72
2023-02-28T13:54:37.980Z,48.96
2023-02-28T13:57:29.405Z,47.77
2023-02-28T14:00:24.161Z,47.84
2023-02-28T14:02:59.901Z,48.84
2023-02-28T14:05:28.211Z,48.97
2023-02-28T14:07:58.096Z,48.75
2023-02-28T14:10:31.884Z,48.56
2023-02-28T14:13:02.295Z,48.91
2023-02-28T14:15:49.365Z,48.79
2023-02-28T14:18:19.159Z,48.98
2023-02-28T14:20:48.766Z,48.81
2023-02-28T14:23:47.041Z,48.99
2023-02-28T14:26:13.769Z,48.99
2023-02-28T14:28:46.614Z,49.67
2023-02-28T14:31:38.095Z,48.57
2023-02-28T14:34:04.686Z,47.53
2023-02-28T14:36:37.628Z,48.67
2023-02-28T14:39:16.910Z,49.02
2023-02-28T14:41:45.410Z,47.50
2023-02-28T14:44:18.547Z,48.36
2023-02-28T14:46:46.780Z,49.25
2023-02-28T14:49:25.796Z,49.59
2023-02-28T14:52:13.923Z,48.99
2023-02-28T14:54:41.237Z,48.99
2023-02-28T14:57:25.567Z,49.04
2023-02-28T15:00:13.076Z,49.94
2023-02-28T15:02:40.936Z,50.48
2023-02-28T15:05:13.352Z,50.27
2023-02-28T15:07:42.373Z,50.41
2023-02-28T15:10:19.981Z,50.88
2023-02-28T15:12:53.808Z,50.62
2023-02-28T15:15:28.175Z,50.50
2023-02-28T15:18:06.977Z,50.44
2023-02-28T15:20:34.744Z,50.83
2023-02-28T15:23:01.732Z,50.71
2023-02-28T15:25:28.710Z,51.13
2023-02-28T15:27:58.347Z,51.49
2023-02-28T15:30:33.732Z,51.99
2023-02-28T15:33:14.443Z,51.59
2023-02-28T15:35:41.145Z,51.07
2023-02-28T15:38:27.381Z,51.87
2023-02-28T15:40:56.235Z,52.07
2023-02-28T15:43:28.920Z,52.04
2023-02-28T15:45:58.723Z,51.45
2023-02-28T15:48:30.137Z,51.95
2023-02-28T15:51:03.869Z,51.70
2023-02-28T15:53:34.610Z,52.23
2023-02-28T15:56:07.765Z,51.77
2023-02-28T15:58:37.118Z,52.42
2023-02-28T16:01:21.615Z,52.45
2023-02-28T16:03:51.926Z,52.83
2023-02-28T16:06:34.646Z,53.20
2023-02-28T16:09:01.280Z,53.40
2023-02-28T16:11:28.847Z,53.15
2023-02-28T16:13:55.837Z,54.05
2023-02-28T16:16:25.372Z,54.32
2023-02-28T16:18:53.021Z,53.95
2023-02-28T16:21:19.656Z,54.87
2023-02-28T16:23:46.324Z,54.99
2023-02-28T16:26:27.472Z,55.29
2023-02-28T16:28:54.836Z,55.63
2023-02-28T16:31:21.946Z,55.92
2023-02-28T16:33:48.876Z,56.06
2023-02-28T16:36:21.144Z,56.77
2023-02-28T16:38:48.045Z,56.49
2023-02-28T16:41:20.030Z,56.62
2023-02-28T16:43:52.333Z,57.04
2023-02-28T16:46:19.699Z,57.16
2023-02-28T16:48:47.496Z,57.10
2023-02-28T16:51:16.346Z,57.66
2023-02-28T16:53:44.256Z,57.63
2023-02-28T16:56:23.957Z,57.49
2023-02-28T16:58:51.874Z,58.27
2023-02-28T17:01:22.939Z,58.12
2023-02-28T17:03:50.756Z,57.48
2023-02-28T17:06:24.278Z,58.10
2023-02-28T17:08:52.206Z,57.79
2023-02-28T17:11:20.123Z,58.39
2023-02-28T17:13:48.440Z,58.92
2023-02-28T17:16:22.429Z,58.90
2023-02-28T17:18:49.516Z,59.67
2023-02-28T17:21:17.652Z,60.03
2023-02-28T17:23:44.868Z,60.44
2023-02-28T17:26:25.403Z,60.29
2023-02-28T17:28:55.932Z,60.75
2023-02-28T17:31:24.333Z,60.82
2023-02-28T17:33:51.334Z,61.78
2023-02-28T17:36:23.212Z,62.22
2023-02-28T17:38:50.717Z,62.46
2023-02-28T17:41:17.477Z,61.83
2023-02-28T17:43:44.221Z,62.49
2023-02-28T17:46:23.391Z,63.24
2023-02-28T17:48:54.508Z,63.14
2023-02-28T17:51:23.812Z,63.71
2023-02-28T17:53:50.849Z,64.16
2023-02-28T17:56:19.971Z,64.08
2023-02-28T17:58:50.472Z,64.46
2023-02-28T18:01:19.693Z,64.27
2023-02-28T18:03:46.404Z,64.22
2023-02-28T18:06:21.259Z,65.53
2023-02-28T18:08:48.704Z,65.16
2023-02-28T18:11:22.394Z,65.81
2023-02-28T18:13:53.856Z,66.50
2023-02-28T18:16:22.513Z,66.58
2023-02-28T18:19:25.033Z,67.02
2023-02-28T18:21:54.943Z,66.97
2023-02-28T18:24:23.608Z,66.83
2023-02-28T18:26:51.878Z,67.51
2023-02-28T18:29:24.877Z,67.83
2023-02-28T18:31:53.638Z,68.32
2023-02-28T18:34:21.554Z,68.66
2023-02-28T18:36:51.009Z,68.90
2023-02-28T18:39:18.361Z,68.79
2023-02-28T18:41:45.157Z,68.96
2023-02-28T18:44:20.204Z,69.25
2023-02-28T18:46:51.480Z,69.89
2023-02-28T18:49:18.797Z,69.75
2023-02-28T18:51:46.790Z,69.91
2023-02-28T18:54:15.416Z,70.34
2023-02-28T18:56:42.752Z,69.93
2023-02-28T18:59:10.291Z,70.39
2023-02-28T19:01:37.496Z,70.67
2023-02-28T19:04:08.103Z,71.21
2023-02-28T19:06:38.297Z,70.89
2023-02-28T19:09:06.185Z,70.90
2023-02-28T19:11:33.580Z,71.00
2023-02-28T19:14:02.763Z,71.46
2023-02-28T19:16:29.983Z,71.32
2023-02-28T19:18:57.853Z,71.50
2023-02-28T19:21:26.097Z,70.55
2023-02-28T19:23:53.303Z,70.28
2023-02-28T19:26:25.313Z,71.13
2023-02-28T19:28:51.991Z,71.27
2023-02-28T19:31:25.333Z,71.96
2023-02-28T19:33:53.104Z,71.23
2023-02-28T19:36:20.983Z,71.28
2023-02-28T19:38:48.057Z,71.91
2023-02-28T19:41:17.076Z,71.95
2023-02-28T19:43:44.081Z,71.69
2023-02-28T19:46:31.546Z,71.60
2023-02-28T19:48:58.410Z,71.83
2023-02-28T19:51:25.249Z,72.05
2023-02-28T19:53:52.007Z,72.33
2023-02-28T19:56:18.776Z,72.25
2023-02-28T19:58:45.573Z,71.80
2023-02-28T20:01:15.352Z,72.50
2023-02-28T20:03:43.065Z,72.50
2023-02-28T20:06:15.967Z,72.70
2023-02-28T20:08:42.833Z,72.44
2023-02-28T20:11:12.691Z,72.70
2023-02-28T20:13:39.581Z,72.97
2023-02-28T20:16:09.709Z,72.79
2023-02-28T20:18:37.879Z,72.97
2023-02-28T20:21:25.033Z,72.74
2023-02-28T20:23:51.840Z,72.80
2023-02-28T20:26:21.495Z,72.91
2023-02-28T20:28:48.837Z,72.65
2023-02-28T20:31:22.336Z,72.95
2023-02-28T20:33:50.792Z,73.28
2023-02-28T20:36:21.357Z,73.12
2023-02-28T20:38:48.675Z,73.15
2023-02-28T20:41:16.197Z,73.53
2023-02-28T20:43:43.087Z,72.95
2023-02-28T20:46:10.495Z,73.25
2023-02-28T20:48:37.830Z,73.72
2023-02-28T20:51:05.697Z,73.46
2023-02-28T20:53:34.665Z,73.98
2023-02-28T20:56:09.019Z,73.61
2023-02-28T20:58:38.276Z,73.86
2023-02-28T21:01:05.030Z,74.13
2023-02-28T21:03:31.862Z,74.01
2023-02-28T21:06:03.308Z,73.63
2023-02-28T21:08:30.173Z,73.86
2023-02-28T21:10:56.989Z,73.61
2023-02-28T21:13:24.011Z,74.07
2023-02-28T21:15:50.733Z,74.47
2023-02-28T21:18:17.544Z,74.20
2023-02-28T21:20:44.914Z,74.09
2023-02-28T21:23:11.839Z,73.99
2023-02-28T21:25:38.474Z,74.37
2023-02-28T21:28:06.408Z,74.81
2023-02-28T21:30:33.401Z,75.06
2023-02-28T21:33:00.301Z,75.15
2023-02-28T21:35:26.933Z,75.24
2023-02-28T21:37:53.655Z,75.14
2023-02-28T21:40:20.255Z,74.74
2023-02-28T21:42:46.921Z,75.53
2023-02-28T21:45:13.563Z,75.02
2023-02-28T21:47:40.252Z,74.82
2023-02-28T21:50:07.572Z,75.62
2023-02-28T21:52:34.494Z,75.62
2023-02-28T21:55:01.178Z,75.68
2023-02-28T21:57:28.073Z,75.74
2023-02-28T21:59:54.903Z,75.65
2023-02-28T22:02:21.519Z,75.57
2023-02-28T22:04:48.381Z,75.60
2023-02-28T22:07:15.820Z,75.44
2023-02-28T22:09:42.510Z,75.39
2023-02-28T22:12:09.312Z,75.40
2023-02-28T22:14:35.998Z,75.35
2023-02-28T22:17:02.747Z,75.62
2023-02-28T22:19:29.511Z,76.01
2023-02-28T22:21:56.279Z,76.59
2023-02-28T22:24:24.618Z,76.07
2023-02-28T22:26:52.641Z,75.70
2023-02-28T22:29:19.591Z,75.53
2023-02-28T22:31:46.443Z,75.09
2023-02-28T22:34:13.171Z,75.09
2023-02-28T22:36:43.779Z,75.45
2023-02-28T22:39:10.754Z,75.20
2023-02-28T22:41:38.041Z,75.59
2023-02-28T22:44:05.676Z,75.96
2023-02-28T22:46:34.470Z,76.00
2023-02-28T22:49:03.710Z,75.63
2023-02-28T22:51:31.321Z,76.11
2023-02-28T22:53:58.625Z,76.49
2023-02-28T22:56:28.406Z,76.96
2023-02-28T22:58:57.250Z,76.48
2023-02-28T23:01:26.722Z,76.37
2023-02-28T23:03:53.927Z,76.47
2023-02-28T23:06:35.021Z,77.08
2023-02-28T23:09:07.020Z,77.13
2023-02-28T23:11:36.862Z,77.04
2023-02-28T23:14:03.620Z,77.49
2023-02-28T23:16:42.903Z,77.58
2023-02-28T23:19:11.056Z,77.99
2023-02-28T23:21:38.887Z,77.71
2023-02-28T23:24:10.524Z,77.43
2023-02-28T23:26:43.809Z,77.46
2023-02-28T23:29:12.208Z,77.53
2023-02-28T23:31:39.025Z,77.37
2023-02-28T23:34:06.100Z,77.55
2023-02-28T23:36:33.370Z,77.74
2023-02-28T23:39:00.224Z,77.23
2023-02-28T23:41:26.992Z,77.59
2023-02-28T23:44:17.121Z,77.38
2023-02-28T23:46:45.736Z,77.39
2023-02-28T23:49:13.044Z,78.74
2023-02-28T23:51:39.803Z,78.46
2023-02-28T23:54:06.844Z,78.34
2023-02-28T23:56:34.192Z,78.79
2023-02-28T23:59:00.965Z,78.57
